createdAt,value
2019-05-15T00:01:54.615Z,23.70
2019-05-15T00:04:30.558Z,25.72
2019-05-15T00:07:08.813Z,25.77
2019-05-15T00:09:44.163Z,29.82
2019-05-15T00:12:20.273Z,27.00
2019-05-15T00:14:58.088Z,26.02
2019-05-15T00:17:33.925Z,27.75
2019-05-15T00:20:10.600Z,33.98
2019-05-15T00:22:48.410Z,24.57
2019-05-15T00:25:24.263Z,28.40
2019-05-15T00:28:00.322Z,26.20
2019-05-15T00:30:38.489Z,27.50
2019-05-15T00:33:14.987Z,28.87
2019-05-15T00:35:50.945Z,25.60
2019-05-15T00:38:27.991Z,32.38
2019-05-15T00:41:04.200Z,27.70
2019-05-15T00:43:40.158Z,24.05
2019-05-15T00:46:18.325Z,27.80
2019-05-15T00:48:54.220Z,32.85
2019-05-15T00:51:30.288Z,28.62
2019-05-15T00:54:08.403Z,27.42
2019-05-15T00:56:44.587Z,24.40
2019-05-15T00:59:26.347Z,27.77
2019-05-15T01:01:59.409Z,25.68
2019-05-15T01:04:35.593Z,24.65
2019-05-15T01:07:11.552Z,26.33
2019-05-15T01:09:48.728Z,27.45
2019-05-15T01:12:24.786Z,28.90
2019-05-15T01:15:01.863Z,27.75
2019-05-15T01:17:39.776Z,30.12
2019-05-15T01:20:15.731Z,28.67
2019-05-15T01:22:51.676Z,29.98
2019-05-15T01:25:28.082Z,27.02
2019-05-15T01:28:04.211Z,25.97
2019-05-15T01:30:41.183Z,26.85
2019-05-15T01:33:18.923Z,28.85
2019-05-15T01:35:54.797Z,24.10
2019-05-15T01:38:30.807Z,26.80
2019-05-15T01:41:06.764Z,24.57
2019-05-15T01:43:43.844Z,24.75
2019-05-15T01:46:19.787Z,32.28
2019-05-15T01:48:55.759Z,24.43
2019-05-15T01:51:31.714Z,23.38
2019-05-15T01:54:09.113Z,25.35
2019-05-15T01:56:49.226Z,25.68
2019-05-15T01:59:24.292Z,25.72
2019-05-15T02:02:00.237Z,26.93
2019-05-15T02:04:36.195Z,27.15
2019-05-15T02:07:12.156Z,22.48
2019-05-15T02:09:49.238Z,23.38
2019-05-15T02:12:28.439Z,28.62
2019-05-15T02:15:08.660Z,27.98
2019-05-15T02:17:44.778Z,23.00
2019-05-15T02:20:20.661Z,22.67
2019-05-15T02:22:59.017Z,22.15
2019-05-15T02:25:34.402Z,24.05
2019-05-15T02:28:10.365Z,22.65
2019-05-15T02:30:50.028Z,20.90
2019-05-15T02:33:24.430Z,22.27
2019-05-15T02:36:00.401Z,20.30
2019-05-15T02:38:40.411Z,22.55
2019-05-15T02:41:14.292Z,22.73
2019-05-15T02:43:50.363Z,22.25
2019-05-15T02:46:26.362Z,24.15
2019-05-15T02:49:02.270Z,22.20
2019-05-15T02:51:40.018Z,19.70
2019-05-15T02:54:19.305Z,24.02
2019-05-15T02:56:53.872Z,37.50
2019-05-15T02:59:29.837Z,22.55
2019-05-15T03:02:05.887Z,25.57
2019-05-15T03:04:41.849Z,24.57
2019-05-15T03:07:19.307Z,23.60
2019-05-15T03:09:55.480Z,17.15
2019-05-15T03:12:31.442Z,19.40
2019-05-15T03:15:09.630Z,18.37
2019-05-15T03:17:45.107Z,18.12
2019-05-15T03:20:21.054Z,18.80
2019-05-15T03:22:59.691Z,25.00
2019-05-15T03:25:34.713Z,19.98
2019-05-15T03:28:11.141Z,31.42
2019-05-15T03:31:17.833Z,28.50
2019-05-15T03:33:29.968Z,41.48
2019-05-15T03:36:03.769Z,62.25
2019-05-15T03:38:40.020Z,28.20
2019-05-15T03:41:19.175Z,16.85
2019-05-15T03:43:53.671Z,25.27
2019-05-15T03:46:29.629Z,17.85
2019-05-15T03:49:08.440Z,17.80
2019-05-15T03:51:45.932Z,15.85
2019-05-15T03:54:20.972Z,17.25
2019-05-15T03:56:58.528Z,27.00
2019-05-15T03:59:34.727Z,26.17
2019-05-15T04:02:10.823Z,19.50
2019-05-15T04:04:49.829Z,25.40
2019-05-15T04:07:24.555Z,18.98
2019-05-15T04:10:00.525Z,19.45
2019-05-15T04:12:39.845Z,33.38
2019-05-15T04:15:14.471Z,30.17
2019-05-15T04:17:50.434Z,20.90
2019-05-15T04:20:29.467Z,21.90
2019-05-15T04:23:04.083Z,21.05
2019-05-15T04:25:40.478Z,26.25
2019-05-15T04:28:19.385Z,28.55
2019-05-15T04:30:55.336Z,18.30
2019-05-15T04:33:31.293Z,20.02
2019-05-15T04:36:09.790Z,26.57
2019-05-15T04:38:44.943Z,15.10
2019-05-15T04:41:20.893Z,16.00
2019-05-15T04:43:59.563Z,16.05
2019-05-15T04:46:34.436Z,14.00
2019-05-15T04:49:10.821Z,13.60
2019-05-15T04:51:49.816Z,14.40
2019-05-15T04:54:24.564Z,14.73
2019-05-15T04:57:00.527Z,19.42
2019-05-15T04:59:38.985Z,14.28
2019-05-15T05:02:24.208Z,23.60
2019-05-15T05:04:51.865Z,22.22
2019-05-15T05:07:29.585Z,15.90
2019-05-15T05:10:09.156Z,22.40
2019-05-15T05:12:43.944Z,25.00
2019-05-15T05:15:19.903Z,20.70
2019-05-15T05:17:58.424Z,22.30
2019-05-15T05:20:33.658Z,17.73
2019-05-15T05:23:09.602Z,16.15
2019-05-15T05:25:45.763Z,15.25
2019-05-15T05:28:21.721Z,13.45
2019-05-15T05:30:58.808Z,12.37
2019-05-15T05:33:35.372Z,17.15
2019-05-15T05:36:11.430Z,20.50
2019-05-15T05:38:49.312Z,16.85
2019-05-15T05:41:25.098Z,23.60
2019-05-15T05:44:01.039Z,13.15
2019-05-15T05:46:39.534Z,18.82
2019-05-15T05:49:14.910Z,20.40
2019-05-15T05:51:50.865Z,20.55
2019-05-15T05:54:28.832Z,21.90
2019-05-15T05:57:04.421Z,16.87
2019-05-15T05:59:51.187Z,27.50
2019-05-15T06:02:48.093Z,23.40
2019-05-15T06:05:31.533Z,16.42
2019-05-15T06:08:19.862Z,54.13
2019-05-15T06:11:05.677Z,28.32
2019-05-15T06:13:53.880Z,30.20
2019-05-15T06:16:32.708Z,20.75
2019-05-15T06:19:08.657Z,31.25
2019-05-15T06:21:54.569Z,24.15
2019-05-15T06:24:22.407Z,22.65
2019-05-15T06:26:58.727Z,26.82
2019-05-15T06:29:34.847Z,25.70
2019-05-15T06:32:10.804Z,36.30
2019-05-15T06:34:48.495Z,22.17
2019-05-15T06:37:24.664Z,24.07
2019-05-15T06:40:00.606Z,20.45
2019-05-15T06:42:38.953Z,33.30
2019-05-15T06:45:14.580Z,25.68
2019-05-15T06:47:51.551Z,21.70
2019-05-15T06:50:38.033Z,25.12
2019-05-15T06:53:13.189Z,24.43
2019-05-15T06:55:49.353Z,21.77
2019-05-15T06:58:25.426Z,23.22
2019-05-15T07:01:01.378Z,19.17
2019-05-15T07:03:39.221Z,22.77
2019-05-15T07:06:15.030Z,21.33
2019-05-15T07:08:50.987Z,26.23
2019-05-15T07:11:28.197Z,18.55
2019-05-15T07:14:04.846Z,20.12
2019-05-15T07:16:40.904Z,20.25
2019-05-15T07:19:19.022Z,16.48
2019-05-15T07:21:54.544Z,23.75
2019-05-15T07:24:30.501Z,21.17
2019-05-15T07:27:07.996Z,27.62
2019-05-15T07:29:44.065Z,20.80
2019-05-15T07:32:21.131Z,25.05
2019-05-15T07:34:57.886Z,25.82
2019-05-15T07:37:34.091Z,30.52
2019-05-15T07:40:10.808Z,29.05
2019-05-15T07:42:49.036Z,26.07
2019-05-15T07:45:24.604Z,22.48
2019-05-15T07:48:00.574Z,20.30
2019-05-15T07:50:38.816Z,19.48
2019-05-15T07:53:14.210Z,16.87
2019-05-15T07:55:51.404Z,19.70
2019-05-15T07:58:28.494Z,17.98
2019-05-15T08:01:05.503Z,16.95
2019-05-15T08:03:55.549Z,18.10
2019-05-15T08:06:19.424Z,17.85
2019-05-15T08:08:55.392Z,17.48
2019-05-15T08:11:31.341Z,24.67
2019-05-15T08:14:08.925Z,18.62
2019-05-15T08:16:45.103Z,23.75
2019-05-15T08:19:21.050Z,15.88
2019-05-15T08:21:58.175Z,16.35
2019-05-15T08:24:34.393Z,17.50
2019-05-15T08:27:10.280Z,16.52
2019-05-15T08:29:48.563Z,15.93
2019-05-15T08:32:24.003Z,16.20
2019-05-15T08:34:59.961Z,17.40
2019-05-15T08:37:38.308Z,17.65
2019-05-15T08:40:14.614Z,19.50
2019-05-15T08:42:57.047Z,15.68
2019-05-15T08:45:28.403Z,13.08
2019-05-15T08:48:04.657Z,14.10
2019-05-15T08:50:40.626Z,14.85
2019-05-15T08:53:18.968Z,14.60
2019-05-15T08:55:54.282Z,14.28
2019-05-15T08:58:30.337Z,16.05
2019-05-15T09:01:06.294Z,13.00
2019-05-15T09:03:42.238Z,13.72
2019-05-15T09:06:22.271Z,14.18
2019-05-15T09:08:58.343Z,15.95
2019-05-15T09:11:33.598Z,12.58
2019-05-15T09:14:09.493Z,13.38
2019-05-15T09:16:45.512Z,10.63
2019-05-15T09:19:21.456Z,12.05
2019-05-15T09:21:58.469Z,10.80
2019-05-15T09:24:34.711Z,8.83
2019-05-15T09:27:10.675Z,8.35
2019-05-15T09:29:48.411Z,9.43
2019-05-15T09:32:24.218Z,9.35
2019-05-15T09:35:00.177Z,8.20
2019-05-15T09:37:38.642Z,8.83
2019-05-15T09:40:15.001Z,11.45
2019-05-15T09:42:51.311Z,10.50
2019-05-15T09:45:28.604Z,10.90
2019-05-15T09:48:05.155Z,9.10
2019-05-15T09:50:41.224Z,8.95
2019-05-15T09:53:18.797Z,11.95
2019-05-15T09:55:54.891Z,12.28
2019-05-15T09:58:30.851Z,14.63
2019-05-15T10:01:08.545Z,13.18
2019-05-15T10:03:44.733Z,14.30
2019-05-15T10:06:20.998Z,15.95
2019-05-15T10:08:56.957Z,16.07
2019-05-15T10:11:32.870Z,12.03
2019-05-15T10:14:09.755Z,10.30
2019-05-15T10:16:48.124Z,15.60
2019-05-15T10:19:23.766Z,11.78
2019-05-15T10:21:59.843Z,13.32
2019-05-15T10:24:35.724Z,17.27
2019-05-15T10:27:11.687Z,14.18
2019-05-15T10:29:48.392Z,11.75
2019-05-15T10:32:24.579Z,14.95
2019-05-15T10:35:00.772Z,11.70
2019-05-15T10:37:38.993Z,11.90
2019-05-15T10:40:15.122Z,11.75
2019-05-15T10:42:51.149Z,13.08
2019-05-15T10:45:29.568Z,14.07
2019-05-15T10:48:05.183Z,11.03
2019-05-15T10:50:41.043Z,14.75
2019-05-15T10:53:18.879Z,11.95
2019-05-15T10:55:55.306Z,13.53
2019-05-15T10:58:31.253Z,12.78
2019-05-15T11:01:10.992Z,13.72
2019-05-15T11:03:44.948Z,14.28
2019-05-15T11:06:20.856Z,13.18
2019-05-15T11:08:58.390Z,13.55
2019-05-15T11:11:34.841Z,15.53
2019-05-15T11:14:10.733Z,22.42
2019-05-15T11:16:48.619Z,20.45
2019-05-15T11:19:24.336Z,19.82
2019-05-15T11:22:00.293Z,25.50
2019-05-15T11:24:38.499Z,30.37
2019-05-15T11:27:14.971Z,35.52
2019-05-15T11:29:50.922Z,37.03
2019-05-15T11:32:29.201Z,33.30
2019-05-15T11:35:06.288Z,41.20
2019-05-15T11:37:46.477Z,43.95
2019-05-15T11:40:20.873Z,41.40
2019-05-15T11:42:56.813Z,39.65
2019-05-15T11:45:32.977Z,46.28
2019-05-15T11:48:09.212Z,48.85
2019-05-15T11:50:45.108Z,45.48
2019-05-15T11:53:21.021Z,52.33
2019-05-15T11:55:56.969Z,55.15
2019-05-15T11:58:32.875Z,57.40
2019-05-15T12:01:08.831Z,58.55
2019-05-15T12:03:44.750Z,52.67
2019-05-15T12:06:22.952Z,60.70
2019-05-15T12:08:59.222Z,50.25
2019-05-15T12:11:37.917Z,55.17
2019-05-15T12:14:13.275Z,57.23
2019-05-15T12:17:05.116Z,59.33
2019-05-15T12:19:29.204Z,57.80
2019-05-15T12:22:04.481Z,65.65
2019-05-15T12:24:41.580Z,51.90
2019-05-15T12:27:18.362Z,51.28
2019-05-15T12:29:54.516Z,55.58
2019-05-15T12:32:36.038Z,64.60
2019-05-15T12:35:08.207Z,60.30
2019-05-15T12:37:44.124Z,61.68
2019-05-15T13:01:21.918Z,54.13
2019-05-15T13:03:58.060Z,56.80
2019-05-15T13:06:47.399Z,50.20
2019-05-15T13:09:11.588Z,56.77
2019-05-15T13:11:48.477Z,61.45
2019-05-15T13:14:24.609Z,76.80
2019-05-15T13:17:00.480Z,67.25
2019-05-15T13:19:38.680Z,69.25
2019-05-15T13:22:18.093Z,64.62
2019-05-15T13:24:51.593Z,69.65
2019-05-15T13:27:27.700Z,70.80
2019-05-15T13:30:04.539Z,72.30
2019-05-15T13:32:41.235Z,72.85
2019-05-15T13:35:18.408Z,79.65
2019-05-15T13:37:54.416Z,75.17
2019-05-15T13:40:37.126Z,72.95
2019-05-15T13:43:08.466Z,74.58
2019-05-15T13:45:44.612Z,77.20
2019-05-15T13:48:20.650Z,75.42
2019-05-15T13:50:58.796Z,96.80
2019-05-15T13:53:34.201Z,83.60
2019-05-15T13:56:10.152Z,68.87
2019-05-15T13:58:48.124Z,63.80
2019-05-15T14:01:23.693Z,79.95
2019-05-15T14:03:59.665Z,67.42
2019-05-15T14:06:37.816Z,99.47
2019-05-15T14:09:13.226Z,67.45
2019-05-15T14:11:49.782Z,68.70
2019-05-15T14:14:25.828Z,68.92
2019-05-15T14:17:01.748Z,69.45
2019-05-15T14:19:38.652Z,79.80
2019-05-15T14:22:14.734Z,89.15
2019-05-15T14:24:50.675Z,96.97
2019-05-15T14:27:29.004Z,85.80
2019-05-15T14:30:09.576Z,67.45
2019-05-15T14:32:48.256Z,73.72
2019-05-15T14:35:23.068Z,89.03
2019-05-15T14:38:06.357Z,88.35
2019-05-15T14:40:36.590Z,84.30
2019-05-15T14:43:12.604Z,73.90
2019-05-15T14:45:48.551Z,77.05
2019-05-15T14:48:24.788Z,87.78
2019-05-15T14:51:00.692Z,82.15
2019-05-15T14:53:38.569Z,74.58
2019-05-15T14:56:15.200Z,75.25
2019-05-15T14:58:51.233Z,72.32
2019-05-15T15:01:27.187Z,81.63
2019-05-15T15:04:04.157Z,76.60
2019-05-15T15:06:40.249Z,72.67
2019-05-15T15:09:16.288Z,77.67
2019-05-15T15:11:52.238Z,75.10
2019-05-15T15:14:28.582Z,62.03
2019-05-15T15:17:04.859Z,75.90
2019-05-15T15:19:40.842Z,73.42
2019-05-15T15:22:16.785Z,74.42
2019-05-15T15:24:52.699Z,74.62
2019-05-15T15:27:28.607Z,70.52
2019-05-15T15:30:09.170Z,75.65
2019-05-15T15:32:44.480Z,72.75
2019-05-15T15:35:20.387Z,71.30
2019-05-15T15:37:58.062Z,76.42
2019-05-15T15:40:34.122Z,72.70
2019-05-15T15:43:10.002Z,83.70
2019-05-15T15:45:48.445Z,80.75
2019-05-15T15:48:24.505Z,86.02
2019-05-15T15:51:00.433Z,80.20
2019-05-15T15:53:36.339Z,85.12
2019-05-15T15:56:13.916Z,85.97
2019-05-15T15:58:49.835Z,100.97
2019-05-15T16:01:27.780Z,102.78
2019-05-15T16:04:03.386Z,95.57
2019-05-15T16:06:39.290Z,98.25
2019-05-15T16:09:15.499Z,97.42
2019-05-15T16:11:53.196Z,95.32
2019-05-15T16:14:29.109Z,99.45
2019-05-15T16:17:05.375Z,98.70
2019-05-15T16:19:45.552Z,94.37
2019-05-15T16:22:28.365Z,98.82
2019-05-15T16:25:09.249Z,125.00
2019-05-15T16:27:43.840Z,106.55
2019-05-15T16:30:21.006Z,89.25
2019-05-15T16:33:03.038Z,93.22
2019-05-15T16:35:39.202Z,95.67
2019-05-15T16:38:16.117Z,89.77
2019-05-15T16:40:52.067Z,96.05
2019-05-15T16:43:28.567Z,93.87
2019-05-15T16:46:04.724Z,92.78
2019-05-15T16:48:42.516Z,95.92
2019-05-15T16:51:18.383Z,94.05
2019-05-15T16:53:54.329Z,96.10
2019-05-15T16:56:30.223Z,93.40
2019-05-15T16:59:06.152Z,98.72
2019-05-15T17:01:42.328Z,95.83
2019-05-15T17:04:18.445Z,107.65
2019-05-15T17:06:54.440Z,101.27
2019-05-15T17:09:30.374Z,100.75
2019-05-15T17:12:08.739Z,106.80
2019-05-15T17:14:43.974Z,102.02
2019-05-15T17:17:19.929Z,101.53
2019-05-15T17:19:57.889Z,105.27
2019-05-15T17:22:33.584Z,95.92
2019-05-15T17:25:10.039Z,100.10
2019-05-15T17:27:46.006Z,124.75
2019-05-15T17:30:22.170Z,161.05
2019-05-15T17:32:58.932Z,181.40
2019-05-15T17:35:34.902Z,128.45
2019-05-15T17:38:10.850Z,112.03
2019-05-15T17:40:48.463Z,107.35
2019-05-15T17:43:24.615Z,109.95
2019-05-15T17:46:00.567Z,91.92
2019-05-15T17:48:38.694Z,98.03
2019-05-15T17:51:14.208Z,92.57
2019-05-15T17:53:51.495Z,78.52
2019-05-15T17:56:28.426Z,80.80
2019-05-15T17:59:04.535Z,81.57
2019-05-15T18:01:40.504Z,77.30
2019-05-15T18:04:18.764Z,79.55
2019-05-15T18:06:54.156Z,76.57
2019-05-15T18:09:30.107Z,67.60
2019-05-15T18:12:10.693Z,59.23
2019-05-15T18:14:43.756Z,64.47
2019-05-15T18:17:19.723Z,55.28
2019-05-15T18:19:57.966Z,62.55
2019-05-15T18:22:33.363Z,54.80
2019-05-15T18:25:10.049Z,59.27
2019-05-15T18:27:48.089Z,59.65
2019-05-15T18:30:23.703Z,60.38
2019-05-15T18:33:00.071Z,52.98
2019-05-15T18:35:38.471Z,48.90
2019-05-15T18:38:14.633Z,54.58
2019-05-15T18:40:50.709Z,43.68
2019-05-15T18:43:28.548Z,46.88
2019-05-15T18:46:04.461Z,38.13
2019-05-15T18:48:40.403Z,42.40
2019-05-15T18:51:17.500Z,45.58
2019-05-15T18:53:53.555Z,44.80
2019-05-15T18:56:30.638Z,44.80
2019-05-15T18:59:08.478Z,46.20
2019-05-15T19:01:44.190Z,43.83
2019-05-15T19:04:20.123Z,46.15
2019-05-15T19:06:58.300Z,42.75
2019-05-15T19:09:34.506Z,42.27
2019-05-15T19:12:10.465Z,41.98
2019-05-15T19:14:49.208Z,41.18
2019-05-15T19:17:24.116Z,45.35
2019-05-15T19:20:00.075Z,41.25
2019-05-15T19:22:40.538Z,44.65
2019-05-15T19:25:13.929Z,41.20
2019-05-15T19:27:49.998Z,41.75
2019-05-15T19:30:28.457Z,43.60
2019-05-15T19:33:03.754Z,42.55
2019-05-15T19:35:40.827Z,43.13
2019-05-15T19:38:18.588Z,43.28
2019-05-15T19:40:54.498Z,47.98
2019-05-15T19:43:31.156Z,50.08
2019-05-15T19:46:07.990Z,49.45
2019-05-15T19:48:44.110Z,47.38
2019-05-15T19:51:20.059Z,47.55
2019-05-15T19:53:58.667Z,53.17
2019-05-15T19:56:35.045Z,50.65
2019-05-15T19:59:10.998Z,55.10
2019-05-15T20:01:48.604Z,56.92
2019-05-15T20:04:24.742Z,54.23
2019-05-15T20:07:00.802Z,58.87
2019-05-15T20:09:38.330Z,57.38
2019-05-15T20:12:14.569Z,53.08
2019-05-15T20:14:51.150Z,58.87
2019-05-15T20:17:27.713Z,61.48
2019-05-15T20:20:04.981Z,62.95
2019-05-15T20:22:42.597Z,58.05
2019-05-15T20:25:18.742Z,55.08
2019-05-15T20:27:54.711Z,64.15
2019-05-15T20:30:30.657Z,67.70
2019-05-15T20:33:08.933Z,64.45
2019-05-15T20:35:44.628Z,66.12
2019-05-15T20:38:20.574Z,59.03
2019-05-15T20:40:59.480Z,64.22
2019-05-15T20:43:34.443Z,64.12
2019-05-15T20:46:10.387Z,60.70
2019-05-15T20:48:48.583Z,65.10
2019-05-15T20:51:24.045Z,68.37
2019-05-15T20:53:59.998Z,68.40
2019-05-15T20:56:38.289Z,64.40
2019-05-15T20:59:13.651Z,68.22
2019-05-15T21:01:50.799Z,75.85
2019-05-15T21:04:28.088Z,85.67
2019-05-15T21:07:04.296Z,83.35
2019-05-15T21:09:40.448Z,76.35
2019-05-15T21:12:17.939Z,75.28
2019-05-15T21:14:54.110Z,74.05
2019-05-15T21:17:30.069Z,79.15
2019-05-15T21:20:09.048Z,80.95
2019-05-15T21:22:44.224Z,80.35
2019-05-15T21:25:20.178Z,85.60
2019-05-15T21:27:56.134Z,83.97
2019-05-15T21:30:32.101Z,78.00
2019-05-15T21:33:08.669Z,86.63
2019-05-15T21:35:44.823Z,77.45
2019-05-15T21:38:21.334Z,88.92
2019-05-15T21:40:58.633Z,75.92
2019-05-15T21:43:34.843Z,84.77
2019-05-15T21:46:10.800Z,81.90
2019-05-15T21:48:48.710Z,88.20
2019-05-15T21:51:24.461Z,84.60
2019-05-15T21:54:01.181Z,85.22
2019-05-15T21:56:38.600Z,84.77
2019-05-15T21:59:14.790Z,91.37
2019-05-15T22:01:50.856Z,90.32
2019-05-15T22:04:28.122Z,84.62
2019-05-15T22:07:08.851Z,81.85
2019-05-15T22:09:43.837Z,84.67
2019-05-15T22:12:21.024Z,82.37
2019-05-15T22:14:58.096Z,87.37
2019-05-15T22:17:34.274Z,81.32
2019-05-15T22:20:10.623Z,81.90
2019-05-15T22:22:50.387Z,84.03
2019-05-15T22:25:23.459Z,77.75
2019-05-15T22:27:59.426Z,83.20
2019-05-15T22:30:35.583Z,76.28
2019-05-15T22:33:11.955Z,79.47
2019-05-15T22:35:48.839Z,81.35
2019-05-15T22:38:28.393Z,76.65
2019-05-15T22:41:03.906Z,75.03
2019-05-15T22:43:39.861Z,73.65
2019-05-15T22:46:18.435Z,72.27
2019-05-15T22:48:53.414Z,66.10
2019-05-15T22:51:29.993Z,58.30
2019-05-15T22:54:08.488Z,62.88
2019-05-15T22:56:45.083Z,58.45
2019-05-15T22:59:21.027Z,50.95
2019-05-15T23:01:58.161Z,54.38
2019-05-15T23:04:34.271Z,47.23
2019-05-15T23:07:10.341Z,53.30
2019-05-15T23:09:51.257Z,45.55
2019-05-15T23:12:28.708Z,42.60
2019-05-15T23:15:05.403Z,46.88
2019-05-15T23:17:48.736Z,38.90
2019-05-15T23:20:25.791Z,41.95
2019-05-15T23:23:01.735Z,41.10
2019-05-15T23:25:38.102Z,41.25
2019-05-15T23:28:14.262Z,41.65
2019-05-15T23:30:50.218Z,43.15
2019-05-15T23:33:28.105Z,46.70
2019-05-15T23:36:03.874Z,47.80
2019-05-15T23:38:39.839Z,45.20
2019-05-15T23:41:15.888Z,50.38
2019-05-15T23:43:51.841Z,58.83
2019-05-15T23:46:28.832Z,63.95
2019-05-15T23:49:05.003Z,61.55
2019-05-15T23:54:15.055Z,60.05
2019-05-15T23:56:51.029Z,58.20
2019-05-15T23:59:28.197Z,50.40
